createdAt,value
2022-12-03T00:01:03.813Z,11.43
2022-12-03T00:03:37.755Z,12.82
2022-12-03T00:06:11.497Z,11.95
2022-12-03T00:08:41.792Z,12.10
2022-12-03T00:11:12.706Z,10.10
2022-12-03T00:16:29.828Z,11.98
2022-12-03T00:19:05.081Z,12.20
2022-12-03T00:21:36.249Z,12.30
2022-12-03T00:24:29.172Z,12.00
2022-12-03T00:26:59.945Z,10.80
2022-12-03T00:29:30.612Z,11.43
2022-12-03T00:32:01.415Z,13.15
2022-12-03T00:34:32.834Z,11.98
2022-12-03T00:37:03.608Z,11.40
2022-12-03T00:39:34.428Z,13.30
2022-12-03T00:42:04.921Z,11.07
2022-12-03T00:44:36.805Z,12.80
2022-12-03T00:47:26.836Z,12.15
2022-12-03T00:50:11.678Z,11.35
2022-12-03T00:52:44.897Z,12.70
2022-12-03T00:55:15.336Z,12.15
2022-12-03T00:57:45.910Z,10.27
2022-12-03T01:00:18.386Z,9.43
2022-12-03T01:02:49.074Z,12.05
2022-12-03T01:05:20.696Z,12.05
2022-12-03T01:07:52.957Z,10.18
2022-12-03T01:10:23.876Z,13.98
2022-12-03T01:12:54.291Z,10.85
2022-12-03T01:15:24.594Z,13.25
2022-12-03T01:17:55.850Z,10.38
2022-12-03T01:20:26.768Z,11.18
2022-12-03T01:22:58.128Z,10.68
2022-12-03T01:25:28.544Z,11.55
2022-12-03T01:27:58.990Z,10.15
2022-12-03T01:30:29.333Z,11.95
2022-12-03T01:33:00.084Z,11.98
2022-12-03T01:35:30.813Z,10.75
2022-12-03T01:38:02.368Z,10.90
2022-12-03T01:40:32.964Z,10.55
2022-12-03T01:43:03.540Z,11.10
2022-12-03T01:45:35.693Z,10.73
2022-12-03T01:48:06.656Z,9.52
2022-12-03T01:50:38.210Z,10.73
2022-12-03T01:53:11.923Z,12.75
2022-12-03T01:55:48.846Z,11.90
2022-12-03T01:58:23.188Z,14.23
2022-12-03T02:03:28.318Z,11.65
2022-12-03T02:05:59.051Z,16.05
2022-12-03T02:08:37.066Z,12.00
2022-12-03T02:11:23.758Z,11.25
2022-12-03T02:14:02.688Z,11.68
2022-12-03T02:16:45.100Z,11.85
2022-12-03T02:19:37.758Z,10.13
2022-12-03T02:22:28.845Z,11.55
2022-12-03T02:25:24.380Z,9.90
2022-12-03T02:27:59.910Z,9.85
2022-12-03T02:30:32.408Z,11.73
2022-12-03T02:33:03.899Z,9.95
2022-12-03T02:35:39.495Z,9.48
2022-12-03T02:38:20.577Z,11.30
2022-12-03T02:40:55.665Z,9.80
2022-12-03T02:46:14.948Z,8.85
2022-12-03T02:48:45.687Z,8.65
2022-12-03T02:51:19.729Z,11.85
2022-12-03T02:53:53.954Z,13.05
2022-12-03T02:56:28.110Z,9.90
2022-12-03T02:59:02.934Z,12.57
2022-12-03T03:01:37.038Z,11.80
2022-12-03T03:04:08.426Z,10.57
2022-12-03T03:06:39.291Z,12.32
2022-12-03T03:09:09.826Z,8.60
2022-12-03T03:11:40.698Z,10.88
2022-12-03T03:14:12.533Z,9.98
2022-12-03T03:16:43.244Z,11.02
2022-12-03T03:19:21.071Z,8.93
2022-12-03T03:21:51.671Z,12.05
2022-12-03T03:24:23.639Z,11.50
2022-12-03T03:26:56.540Z,14.32
2022-12-03T03:29:27.473Z,10.02
2022-12-03T03:31:59.236Z,9.45
2022-12-03T03:34:37.410Z,8.98
2022-12-03T03:37:08.451Z,10.05
2022-12-03T03:39:39.298Z,10.55
2022-12-03T03:42:10.713Z,10.57
2022-12-03T03:44:41.599Z,17.15
2022-12-03T03:47:12.637Z,19.58
2022-12-03T03:49:44.215Z,21.77
2022-12-03T03:52:14.981Z,17.90
2022-12-03T03:54:46.645Z,15.48
2022-12-03T03:57:17.668Z,18.48
2022-12-03T03:59:48.716Z,18.40
2022-12-03T04:02:23.462Z,16.40
2022-12-03T04:04:54.455Z,18.65
2022-12-03T04:07:25.047Z,15.63
2022-12-03T04:09:55.341Z,14.65
2022-12-03T04:12:43.888Z,13.30
2022-12-03T04:15:16.300Z,16.48
2022-12-03T04:20:30.304Z,17.20
2022-12-03T04:23:00.859Z,16.10
2022-12-03T04:25:51.606Z,19.70
2022-12-03T04:28:42.121Z,18.33
2022-12-03T04:31:36.369Z,20.02
2022-12-03T04:34:45.869Z,18.17
2022-12-03T04:37:16.441Z,18.63
2022-12-03T04:39:46.844Z,21.73
2022-12-03T04:42:17.634Z,21.23
2022-12-03T04:44:52.654Z,17.90
2022-12-03T04:47:24.629Z,21.45
2022-12-03T04:49:56.397Z,18.98
2022-12-03T04:52:27.058Z,18.55
2022-12-03T04:54:57.562Z,19.00
2022-12-03T04:57:28.993Z,18.85
2022-12-03T04:59:59.472Z,18.90
2022-12-03T05:02:30.022Z,20.13
2022-12-03T05:05:00.453Z,19.13
2022-12-03T05:07:31.092Z,18.27
2022-12-03T05:10:02.653Z,15.95
2022-12-03T05:12:34.620Z,16.40
2022-12-03T05:15:06.788Z,18.38
2022-12-03T05:17:40.551Z,15.95
2022-12-03T05:20:30.090Z,16.20
2022-12-03T05:23:00.598Z,16.05
2022-12-03T05:25:31.032Z,16.83
2022-12-03T05:28:02.966Z,15.98
2022-12-03T05:30:54.679Z,15.38
2022-12-03T05:33:25.314Z,16.77
2022-12-03T05:35:57.983Z,18.63
2022-12-03T05:38:28.733Z,19.48
2022-12-03T05:40:59.207Z,20.27
2022-12-03T05:43:29.871Z,15.27
2022-12-03T05:46:02.058Z,15.73
2022-12-03T05:48:33.209Z,19.83
2022-12-03T05:51:04.814Z,16.15
2022-12-03T05:53:55.120Z,15.35
2022-12-03T05:56:25.621Z,13.70
2022-12-03T05:59:01.679Z,14.77
2022-12-03T06:01:32.303Z,14.02
2022-12-03T06:04:07.803Z,15.00
2022-12-03T06:06:38.672Z,15.35
2022-12-03T06:09:09.143Z,13.32
2022-12-03T06:11:41.438Z,13.50
2022-12-03T06:14:11.979Z,15.68
2022-12-03T06:16:42.336Z,14.63
2022-12-03T06:19:12.843Z,15.35
2022-12-03T06:21:45.174Z,17.42
2022-12-03T06:24:18.648Z,16.35
2022-12-03T06:26:49.641Z,16.88
2022-12-03T06:29:20.398Z,17.40
2022-12-03T06:31:51.099Z,16.33
2022-12-03T06:34:27.584Z,15.85
2022-12-03T06:36:58.492Z,16.08
2022-12-03T06:39:29.424Z,16.17
2022-12-03T06:42:00.141Z,15.65
2022-12-03T06:47:18.939Z,13.82
2022-12-03T06:49:49.586Z,13.38
2022-12-03T06:52:20.127Z,17.92
2022-12-03T06:54:50.906Z,16.75
2022-12-03T06:57:21.460Z,15.13
2022-12-03T07:00:11.808Z,16.48
2022-12-03T07:02:43.456Z,18.17
2022-12-03T07:05:14.159Z,14.27
2022-12-03T07:07:45.109Z,16.42
2022-12-03T07:10:21.873Z,16.10
2022-12-03T07:12:52.197Z,18.10
2022-12-03T07:15:26.582Z,16.98
2022-12-03T07:17:58.188Z,16.25
2022-12-03T07:20:28.778Z,19.30
2022-12-03T07:23:00.665Z,16.65
2022-12-03T07:25:31.157Z,15.43
2022-12-03T07:28:04.877Z,14.10
2022-12-03T07:30:40.029Z,15.73
2022-12-03T07:33:10.572Z,15.60
2022-12-03T07:35:42.192Z,15.80
2022-12-03T07:38:13.687Z,14.40
2022-12-03T07:40:48.000Z,14.73
2022-12-03T07:43:21.014Z,15.70
2022-12-03T07:45:51.537Z,15.32
2022-12-03T07:48:24.459Z,15.02
2022-12-03T07:50:55.070Z,14.15
2022-12-03T07:53:26.987Z,13.63
2022-12-03T07:55:58.697Z,14.00
2022-12-03T07:58:32.765Z,13.85
2022-12-03T08:01:03.561Z,14.68
2022-12-03T08:03:34.534Z,14.57
2022-12-03T08:06:05.214Z,14.13
2022-12-03T08:08:35.833Z,14.05
2022-12-03T08:11:07.201Z,15.02
2022-12-03T08:13:37.788Z,14.90
2022-12-03T08:16:21.091Z,13.40
2022-12-03T08:18:52.754Z,13.07
2022-12-03T08:21:24.250Z,12.50
2022-12-03T08:23:57.505Z,11.88
2022-12-03T08:26:30.248Z,13.90
2022-12-03T08:29:01.190Z,12.88
2022-12-03T08:34:21.292Z,12.30
2022-12-03T08:37:17.639Z,12.70
2022-12-03T08:42:44.720Z,14.20
2022-12-03T08:45:40.881Z,12.23
2022-12-03T08:48:20.174Z,14.63
2022-12-03T08:50:50.985Z,12.80
2022-12-03T08:53:49.296Z,12.05
2022-12-03T08:59:31.071Z,12.35
2022-12-03T09:02:02.393Z,12.15
2022-12-03T09:04:46.634Z,14.55
2022-12-03T09:07:17.753Z,14.32
2022-12-03T09:09:48.366Z,15.77
2022-12-03T09:12:18.817Z,13.75
2022-12-03T09:14:54.011Z,13.80
2022-12-03T09:17:45.347Z,12.55
2022-12-03T09:20:16.309Z,13.88
2022-12-03T09:22:47.688Z,14.65
2022-12-03T09:25:18.685Z,13.38
2022-12-03T09:27:49.083Z,14.00
2022-12-03T09:30:19.968Z,15.45
2022-12-03T09:32:50.377Z,14.07
2022-12-03T09:35:21.057Z,12.95
2022-12-03T09:37:51.474Z,14.60
2022-12-03T09:40:22.769Z,12.77
2022-12-03T09:42:53.944Z,13.48
2022-12-03T09:45:26.388Z,13.98
2022-12-03T09:47:57.466Z,12.35
2022-12-03T09:50:29.525Z,14.88
2022-12-03T09:53:06.751Z,11.02
2022-12-03T09:55:47.016Z,13.00
2022-12-03T09:58:19.774Z,13.35
2022-12-03T10:00:52.618Z,12.40
2022-12-03T10:03:32.098Z,12.70
2022-12-03T10:06:02.832Z,12.85
2022-12-03T10:08:34.884Z,14.32
2022-12-03T10:11:06.056Z,12.98
2022-12-03T10:13:38.551Z,12.68
2022-12-03T10:16:14.528Z,13.02
2022-12-03T10:18:51.424Z,11.75
2022-12-03T10:21:35.431Z,13.23
2022-12-03T10:24:30.178Z,14.48
2022-12-03T10:27:30.879Z,11.77
2022-12-03T10:30:06.834Z,12.07
2022-12-03T10:32:48.993Z,13.15
2022-12-03T10:35:42.511Z,10.43
2022-12-03T10:38:24.116Z,10.90
2022-12-03T10:40:55.075Z,10.43
2022-12-03T10:43:28.479Z,13.40
2022-12-03T10:46:05.341Z,11.82
2022-12-03T10:48:38.482Z,13.48
2022-12-03T10:51:24.377Z,12.87
2022-12-03T10:53:55.518Z,16.50
2022-12-03T10:56:31.421Z,13.50
2022-12-03T10:59:02.067Z,11.80
2022-12-03T11:01:34.167Z,12.60
2022-12-03T11:04:06.843Z,13.23
2022-12-03T11:06:37.436Z,13.68
2022-12-03T11:09:28.430Z,11.85
2022-12-03T11:12:06.756Z,13.93
2022-12-03T11:14:52.883Z,11.45
2022-12-03T11:17:42.123Z,11.98
2022-12-03T11:20:20.935Z,11.38
2022-12-03T11:22:55.247Z,12.20
2022-12-03T11:25:31.934Z,12.00
2022-12-03T11:28:14.539Z,12.55
2022-12-03T11:31:13.070Z,13.02
2022-12-03T11:33:45.743Z,11.48
2022-12-03T11:36:16.783Z,10.18
2022-12-03T11:38:53.376Z,10.75
2022-12-03T11:41:32.900Z,10.57
2022-12-03T11:44:07.288Z,10.32
2022-12-03T11:46:48.453Z,10.18
2022-12-03T11:49:26.688Z,11.23
2022-12-03T11:51:57.468Z,10.70
2022-12-03T11:54:27.874Z,11.57
2022-12-03T11:57:04.434Z,9.77
2022-12-03T11:59:36.550Z,9.80
2022-12-03T12:02:26.595Z,11.85
2022-12-03T12:04:57.243Z,9.98
2022-12-03T12:07:54.609Z,9.35
2022-12-03T12:10:43.867Z,10.07
2022-12-03T12:13:51.054Z,9.07
2022-12-03T12:16:44.191Z,9.70
2022-12-03T12:22:26.544Z,8.07
2022-12-03T12:25:01.105Z,9.00
2022-12-03T12:27:37.681Z,11.52
2022-12-03T12:30:19.878Z,9.10
2022-12-03T12:32:52.805Z,9.45
2022-12-03T12:35:29.168Z,9.50
2022-12-03T12:38:08.508Z,9.63
2022-12-03T12:40:44.184Z,8.50
2022-12-03T12:43:37.936Z,10.00
2022-12-03T12:49:13.705Z,10.55
2022-12-03T12:51:49.010Z,8.60
2022-12-03T12:54:32.146Z,9.05
2022-12-03T12:57:02.905Z,8.93
2022-12-03T12:59:33.524Z,8.25
2022-12-03T13:02:09.950Z,9.77
2022-12-03T13:05:03.103Z,7.30
2022-12-03T13:07:34.475Z,8.30
2022-12-03T13:10:21.733Z,8.55
2022-12-03T13:12:52.113Z,8.70
2022-12-03T13:15:40.872Z,8.05
2022-12-03T13:18:32.104Z,8.45
2022-12-03T13:21:25.106Z,7.93
2022-12-03T13:23:58.705Z,8.80
2022-12-03T13:26:49.209Z,6.95
2022-12-03T13:29:22.420Z,9.60
2022-12-03T13:31:58.986Z,9.93
2022-12-03T13:34:34.839Z,7.45
2022-12-03T13:37:14.909Z,7.35
2022-12-03T13:40:00.018Z,7.10
2022-12-03T13:42:41.399Z,8.30
2022-12-03T13:45:35.088Z,7.18
2022-12-03T13:48:29.535Z,8.02
2022-12-03T13:51:07.077Z,6.85
2022-12-03T13:53:45.776Z,9.63
2022-12-03T13:56:32.540Z,7.43
2022-12-03T13:59:06.812Z,7.22
2022-12-03T14:01:40.983Z,6.40
2022-12-03T14:04:20.320Z,7.85
2022-12-03T14:06:52.462Z,7.82
2022-12-03T14:09:23.221Z,6.97
2022-12-03T14:12:28.561Z,7.00
2022-12-03T14:15:00.131Z,6.35
2022-12-03T14:17:32.119Z,6.85
2022-12-03T14:20:06.552Z,6.18
2022-12-03T14:22:40.477Z,6.07
2022-12-03T14:27:41.115Z,6.75
2022-12-03T14:30:12.420Z,7.85
2022-12-03T14:32:51.955Z,5.35
2022-12-03T14:35:23.432Z,6.22
2022-12-03T14:37:54.057Z,6.00
2022-12-03T14:40:24.519Z,5.75
2022-12-03T14:42:54.877Z,7.72
2022-12-03T14:45:26.502Z,6.22
2022-12-03T14:47:57.001Z,6.03
2022-12-03T14:50:28.702Z,6.07
2022-12-03T14:52:59.462Z,4.95
2022-12-03T14:55:36.227Z,5.78
2022-12-03T14:58:08.170Z,5.55
2022-12-03T15:00:41.745Z,4.85
2022-12-03T15:03:12.557Z,5.68
2022-12-03T15:05:44.020Z,6.43
2022-12-03T15:08:15.728Z,6.45
2022-12-03T15:10:46.389Z,5.43
2022-12-03T15:13:17.055Z,5.80
2022-12-03T15:15:48.489Z,4.57
2022-12-03T15:18:18.956Z,4.07
2022-12-03T15:20:53.967Z,6.13
2022-12-03T15:23:24.320Z,4.65
2022-12-03T15:25:54.925Z,5.13
2022-12-03T15:28:26.075Z,4.82
2022-12-03T15:30:57.291Z,4.05
2022-12-03T15:33:27.716Z,5.47
2022-12-03T15:35:58.334Z,4.88
2022-12-03T15:38:28.911Z,5.72
2022-12-03T15:41:02.582Z,3.60
2022-12-03T15:43:32.965Z,5.10
2022-12-03T15:46:07.510Z,5.38
2022-12-03T15:48:39.343Z,5.80
2022-12-03T15:53:53.373Z,6.55
2022-12-03T15:56:45.340Z,3.65
2022-12-03T15:59:15.985Z,5.45
2022-12-03T16:01:47.026Z,4.57
2022-12-03T16:04:37.590Z,3.60
2022-12-03T16:07:08.574Z,3.67
2022-12-03T16:09:40.546Z,4.28
2022-12-03T16:12:34.572Z,4.45
2022-12-03T16:15:06.254Z,4.43
2022-12-03T16:17:47.059Z,5.00
2022-12-03T16:20:20.372Z,4.53
2022-12-03T16:22:50.995Z,4.28
2022-12-03T16:25:21.449Z,3.95
2022-12-03T16:27:51.994Z,4.00
2022-12-03T16:30:22.918Z,3.30
2022-12-03T16:32:54.569Z,3.78
2022-12-03T16:35:25.338Z,3.08
2022-12-03T16:37:56.104Z,3.30
2022-12-03T16:40:26.643Z,3.70
2022-12-03T16:42:57.367Z,3.50
2022-12-03T16:45:30.731Z,3.78
2022-12-03T16:48:03.743Z,4.25
2022-12-03T16:50:34.502Z,3.92
2022-12-03T16:53:05.018Z,3.88
2022-12-03T16:55:55.362Z,4.53
2022-12-03T16:58:25.888Z,3.78
2022-12-03T17:00:56.317Z,3.42
2022-12-03T17:03:33.575Z,3.60
2022-12-03T17:06:05.019Z,3.13
2022-12-03T17:08:35.414Z,3.35
2022-12-03T17:11:25.721Z,3.88
2022-12-03T17:13:56.604Z,3.67
2022-12-03T17:16:27.344Z,3.10
2022-12-03T17:18:58.068Z,3.75
2022-12-03T17:21:33.745Z,3.85
2022-12-03T17:24:05.866Z,4.05
2022-12-03T17:26:37.613Z,3.33
2022-12-03T17:29:08.558Z,4.25
2022-12-03T17:31:42.240Z,3.70
2022-12-03T17:34:13.147Z,3.53
2022-12-03T17:36:44.694Z,3.88
2022-12-03T17:39:15.452Z,3.22
2022-12-03T17:41:45.813Z,3.47
2022-12-03T17:44:20.952Z,3.13
2022-12-03T17:46:52.393Z,2.45
2022-12-03T17:49:28.300Z,3.15
2022-12-03T17:52:02.045Z,3.92
2022-12-03T17:54:55.320Z,3.63
2022-12-03T17:57:23.191Z,2.97
2022-12-03T17:59:53.904Z,2.30
2022-12-03T18:02:24.443Z,2.90
2022-12-03T18:04:54.967Z,3.80
2022-12-03T18:07:25.755Z,3.03
2022-12-03T18:09:56.708Z,3.67
2022-12-03T18:12:27.907Z,3.35
2022-12-03T18:14:58.345Z,2.47
2022-12-03T18:17:28.713Z,3.50
2022-12-03T18:19:59.310Z,2.97
2022-12-03T18:22:30.261Z,2.90
2022-12-03T18:25:01.105Z,3.13
2022-12-03T18:27:31.867Z,2.70
2022-12-03T18:32:45.997Z,3.23
2022-12-03T18:35:20.551Z,2.20
2022-12-03T18:37:55.360Z,3.03
2022-12-03T18:40:31.362Z,3.22
2022-12-03T18:43:02.524Z,2.55
2022-12-03T18:45:33.212Z,2.53
2022-12-03T18:50:48.337Z,3.13
2022-12-03T18:53:20.577Z,2.42
2022-12-03T18:55:51.161Z,1.92
2022-12-03T18:58:22.942Z,2.75
2022-12-03T19:00:53.686Z,2.40
2022-12-03T19:03:24.215Z,3.00
2022-12-03T19:05:54.650Z,2.53
2022-12-03T19:08:25.207Z,2.33
2022-12-03T19:14:05.905Z,2.65
2022-12-03T19:16:37.999Z,2.15
2022-12-03T19:19:10.512Z,2.13
2022-12-03T19:21:40.892Z,2.83
2022-12-03T19:24:26.551Z,1.75
2022-12-03T19:26:57.252Z,2.53
2022-12-03T19:29:27.752Z,2.85
2022-12-03T19:31:59.445Z,2.25
2022-12-03T19:34:30.205Z,2.05
2022-12-03T19:39:44.662Z,2.38
2022-12-03T19:42:15.216Z,2.88
2022-12-03T19:44:45.708Z,2.28
2022-12-03T19:47:16.314Z,2.22
2022-12-03T19:49:46.750Z,1.70
2022-12-03T19:52:17.397Z,2.00
2022-12-03T19:54:47.903Z,1.50
2022-12-03T19:57:23.562Z,2.20
2022-12-03T19:59:56.206Z,1.50
2022-12-03T20:02:27.396Z,1.75
2022-12-03T20:04:58.469Z,2.30
2022-12-03T20:07:29.489Z,2.05
2022-12-03T20:10:00.034Z,2.13
2022-12-03T20:12:31.330Z,2.05
2022-12-03T20:15:02.198Z,2.05
2022-12-03T20:17:32.970Z,1.90
2022-12-03T20:20:03.472Z,1.52
2022-12-03T20:22:34.268Z,1.83
2022-12-03T20:25:05.800Z,1.73
2022-12-03T20:27:36.920Z,2.15
2022-12-03T20:30:08.614Z,1.52
2022-12-03T20:32:43.721Z,2.03
2022-12-03T20:35:16.166Z,1.45
2022-12-03T20:37:47.015Z,1.67
2022-12-03T20:40:17.626Z,1.50
2022-12-03T20:42:50.914Z,1.63
2022-12-03T20:45:21.553Z,2.17
2022-12-03T20:47:52.414Z,2.28
2022-12-03T20:50:22.974Z,1.95
2022-12-03T20:53:22.761Z,1.40
2022-12-03T20:55:44.157Z,1.40
2022-12-03T20:58:14.571Z,1.40
2022-12-03T21:00:45.178Z,1.70
2022-12-03T21:03:16.014Z,1.75
2022-12-03T21:05:48.804Z,1.50
2022-12-03T21:11:04.251Z,1.67
2022-12-03T21:13:35.033Z,2.05
2022-12-03T21:16:11.494Z,1.42
2022-12-03T21:18:42.620Z,1.65
2022-12-03T21:21:18.164Z,1.40
2022-12-03T21:23:48.964Z,2.42
2022-12-03T21:26:23.900Z,2.72
2022-12-03T21:28:56.016Z,2.25
2022-12-03T21:31:30.862Z,1.55
2022-12-03T21:34:01.695Z,1.27
2022-12-03T21:36:34.930Z,1.40
2022-12-03T21:39:06.829Z,1.73
2022-12-03T21:41:37.688Z,1.67
2022-12-03T21:44:08.368Z,1.30
2022-12-03T21:47:09.453Z,1.33
2022-12-03T21:49:32.336Z,1.55
2022-12-03T21:52:03.004Z,2.22
2022-12-03T21:54:33.425Z,1.80
2022-12-03T21:57:23.716Z,1.60
2022-12-03T21:59:54.315Z,2.78
2022-12-03T22:02:24.985Z,1.63
2022-12-03T22:04:55.517Z,1.58
2022-12-03T22:07:26.533Z,2.05
2022-12-03T22:09:57.685Z,2.95
2022-12-03T22:12:28.438Z,4.53
2022-12-03T22:14:58.977Z,5.00
2022-12-03T22:17:30.159Z,4.25
2022-12-03T22:20:00.533Z,4.78
2022-12-03T22:22:31.389Z,4.70
2022-12-03T22:25:01.947Z,6.65
2022-12-03T22:27:32.477Z,5.90
2022-12-03T22:30:02.973Z,7.45
2022-12-03T22:32:33.628Z,7.95
2022-12-03T22:35:04.296Z,6.93
2022-12-03T22:37:34.744Z,7.95
2022-12-03T22:40:05.577Z,6.75
2022-12-03T22:42:36.392Z,6.95
2022-12-03T22:47:53.747Z,7.43
2022-12-03T22:50:24.446Z,8.63
2022-12-03T22:52:55.184Z,6.60
2022-12-03T22:55:25.902Z,7.15
2022-12-03T22:57:56.631Z,7.25
2022-12-03T23:00:36.453Z,5.95
2022-12-03T23:03:08.137Z,6.60
2022-12-03T23:05:40.924Z,5.45
2022-12-03T23:08:15.499Z,6.00
2022-12-03T23:10:48.411Z,7.57
2022-12-03T23:13:20.040Z,6.47
2022-12-03T23:15:52.624Z,7.60
2022-12-03T23:18:23.288Z,8.93
2022-12-03T23:20:55.811Z,6.60
2022-12-03T23:23:29.492Z,7.85
2022-12-03T23:26:00.228Z,5.63
2022-12-03T23:28:32.488Z,7.30
2022-12-03T23:31:03.696Z,7.05
2022-12-03T23:33:38.387Z,7.60
2022-12-03T23:36:10.196Z,5.78
2022-12-03T23:38:41.824Z,5.32
2022-12-03T23:41:18.953Z,6.65
2022-12-03T23:43:49.627Z,5.75
2022-12-03T23:46:26.057Z,7.22
2022-12-03T23:52:02.574Z,6.45
2022-12-03T23:54:33.330Z,7.35
2022-12-03T23:57:04.113Z,8.10
2022-12-03T23:59:34.799Z,8.23
